sensor_id;sensor_type;location;lat;lon;timestamp;pressure;altitude;pressure_sealevel;temperature;humidity
15314;BME280;7757;52.626;4.746;2023-05-02T00:02:07;101923.34;;;19.02;55.17
15314;BME280;7757;52.626;4.746;2023-05-02T00:04:56;101925.06;;;18.97;55.34
15314;BME280;7757;52.626;4.746;2023-05-02T00:07:41;101932.78;;;18.93;55.47
15314;BME280;7757;52.626;4.746;2023-05-02T00:10:26;101920.66;;;18.95;55.60
15314;BME280;7757;52.626;4.746;2023-05-02T00:13:12;101922.34;;;18.97;55.20
15314;BME280;7757;52.626;4.746;2023-05-02T00:15:58;101933.78;;;18.99;55.76
15314;BME280;7757;52.626;4.746;2023-05-02T00:18:44;101938.59;;;18.97;55.70
15314;BME280;7757;52.626;4.746;2023-05-02T00:21:33;101946.13;;;18.94;55.62
15314;BME280;7757;52.626;4.746;2023-05-02T00:24:18;101943.63;;;18.93;55.59
15314;BME280;7757;52.626;4.746;2023-05-02T00:27:04;101960.53;;;18.95;55.58
15314;BME280;7757;52.626;4.746;2023-05-02T00:29:49;101958.84;;;18.94;55.61
15314;BME280;7757;52.626;4.746;2023-05-02T00:32:36;101962.16;;;18.96;55.52
15314;BME280;7757;52.626;4.746;2023-05-02T00:35:25;101968.03;;;18.93;55.81
15314;BME280;7757;52.626;4.746;2023-05-02T00:38:17;101967.41;;;18.91;55.54
15314;BME280;7757;52.626;4.746;2023-05-02T00:41:05;101968.25;;;18.91;55.74
15314;BME280;7757;52.626;4.746;2023-05-02T00:43:51;101973.03;;;18.89;55.92
15314;BME280;7757;52.626;4.746;2023-05-02T00:46:36;101960.53;;;18.88;55.70
15314;BME280;7757;52.626;4.746;2023-05-02T00:49:23;101960.72;;;18.87;55.82
15314;BME280;7757;52.626;4.746;2023-05-02T00:52:08;101953.03;;;18.84;55.83
15314;BME280;7757;52.626;4.746;2023-05-02T00:54:56;101954.69;;;18.85;55.95
15314;BME280;7757;52.626;4.746;2023-05-02T00:57:44;101957.22;;;18.86;55.77
15314;BME280;7757;52.626;4.746;2023-05-02T01:00:35;101956.38;;;18.86;55.79
15314;BME280;7757;52.626;4.746;2023-05-02T01:03:33;101970.97;;;18.85;55.78
15314;BME280;7757;52.626;4.746;2023-05-02T01:06:41;101971.41;;;18.82;55.90
15314;BME280;7757;52.626;4.746;2023-05-02T01:09:41;101977.44;;;18.84;55.62
15314;BME280;7757;52.626;4.746;2023-05-02T01:12:38;101970.13;;;18.84;55.58
15314;BME280;7757;52.626;4.746;2023-05-02T01:15:25;101979.53;;;18.82;55.84
15314;BME280;7757;52.626;4.746;2023-05-02T01:18:15;101987.66;;;18.82;55.63
15314;BME280;7757;52.626;4.746;2023-05-02T01:21:16;101991.41;;;18.81;55.65
15314;BME280;7757;52.626;4.746;2023-05-02T01:24:10;101972.88;;;18.71;55.79
15314;BME280;7757;52.626;4.746;2023-05-02T01:27:01;101979.09;;;18.78;55.70
15314;BME280;7757;52.626;4.746;2023-05-02T01:29:55;101992.66;;;18.78;55.84
15314;BME280;7757;52.626;4.746;2023-05-02T01:32:44;101986.41;;;18.78;55.70
15314;BME280;7757;52.626;4.746;2023-05-02T01:35:31;101989.13;;;18.78;55.88
15314;BME280;7757;52.626;4.746;2023-05-02T01:38:21;101999.16;;;18.77;55.96
15314;BME280;7757;52.626;4.746;2023-05-02T01:41:09;102001.22;;;18.75;55.23
15314;BME280;7757;52.626;4.746;2023-05-02T01:43:56;101992.06;;;18.70;55.93
15314;BME280;7757;52.626;4.746;2023-05-02T01:46:44;102015.00;;;18.74;55.67
15314;BME280;7757;52.626;4.746;2023-05-02T01:49:32;102016.63;;;18.75;55.46
15314;BME280;7757;52.626;4.746;2023-05-02T01:52:23;102016.25;;;18.71;55.80
15314;BME280;7757;52.626;4.746;2023-05-02T01:55:14;102017.47;;;18.69;55.85
15314;BME280;7757;52.626;4.746;2023-05-02T01:58:01;102018.31;;;18.69;55.81
15314;BME280;7757;52.626;4.746;2023-05-02T02:00:48;102036.03;;;18.72;55.81
15314;BME280;7757;52.626;4.746;2023-05-02T02:03:37;102025.59;;;18.69;56.07
15314;BME280;7757;52.626;4.746;2023-05-02T02:06:23;102027.28;;;18.63;55.79
15314;BME280;7757;52.626;4.746;2023-05-02T02:09:10;102042.94;;;18.68;56.03
15314;BME280;7757;52.626;4.746;2023-05-02T02:12:01;102043.34;;;18.65;56.16
15314;BME280;7757;52.626;4.746;2023-05-02T02:14:49;102055.03;;;18.65;55.87
15314;BME280;7757;52.626;4.746;2023-05-02T02:17:43;102052.31;;;18.65;55.76
15314;BME280;7757;52.626;4.746;2023-05-02T02:20:31;102037.50;;;18.55;55.87
15314;BME280;7757;52.626;4.746;2023-05-02T02:23:28;102061.47;;;18.64;55.83
15314;BME280;7757;52.626;4.746;2023-05-02T02:26:20;102061.72;;;18.63;56.13
15314;BME280;7757;52.626;4.746;2023-05-02T02:29:12;102071.28;;;18.65;55.79
15314;BME280;7757;52.626;4.746;2023-05-02T02:31:58;102055.44;;;18.56;56.23
15314;BME280;7757;52.626;4.746;2023-05-02T02:34:43;102066.72;;;18.59;56.14
15314;BME280;7757;52.626;4.746;2023-05-02T02:37:32;102069.41;;;18.59;56.20
15314;BME280;7757;52.626;4.746;2023-05-02T02:40:22;102073.38;;;18.57;56.04
15314;BME280;7757;52.626;4.746;2023-05-02T02:43:19;102078.38;;;18.60;56.05
15314;BME280;7757;52.626;4.746;2023-05-02T02:46:16;102074.81;;;18.53;55.81
15314;BME280;7757;52.626;4.746;2023-05-02T02:49:18;102080.03;;;18.54;56.52
15314;BME280;7757;52.626;4.746;2023-05-02T02:52:09;102089.81;;;18.55;56.00
15314;BME280;7757;52.626;4.746;2023-05-02T02:55:07;102084.41;;;18.55;56.24
15314;BME280;7757;52.626;4.746;2023-05-02T02:57:58;102093.38;;;18.56;56.02
15314;BME280;7757;52.626;4.746;2023-05-02T03:00:45;102101.09;;;18.52;55.91
15314;BME280;7757;52.626;4.746;2023-05-02T03:03:31;102100.47;;;18.50;56.00
15314;BME280;7757;52.626;4.746;2023-05-02T03:06:24;102100.47;;;18.50;55.90
15314;BME280;7757;52.626;4.746;2023-05-02T03:09:16;102115.47;;;18.53;56.18
15314;BME280;7757;52.626;4.746;2023-05-02T03:12:06;102120.28;;;18.51;56.04
15314;BME280;7757;52.626;4.746;2023-05-02T03:15:01;102120.47;;;18.49;56.25
15314;BME280;7757;52.626;4.746;2023-05-02T03:17:52;102120.66;;;18.48;56.14
15314;BME280;7757;52.626;4.746;2023-05-02T03:20:37;102120.22;;;18.44;56.07
15314;BME280;7757;52.626;4.746;2023-05-02T03:23:24;102139.19;;;18.44;56.23
15314;BME280;7757;52.626;4.746;2023-05-02T03:26:10;102136.47;;;18.44;55.47
15314;BME280;7757;52.626;4.746;2023-05-02T03:28:57;102143.16;;;18.42;56.20
15314;BME280;7757;52.626;4.746;2023-05-02T03:31:42;102149.78;;;18.46;56.26
15314;BME280;7757;52.626;4.746;2023-05-02T03:34:27;102136.25;;;18.39;55.53
15314;BME280;7757;52.626;4.746;2023-05-02T03:37:15;102155.22;;;18.46;56.46
15314;BME280;7757;52.626;4.746;2023-05-02T03:40:00;102153.75;;;18.43;56.13
15314;BME280;7757;52.626;4.746;2023-05-02T03:42:52;102147.09;;;18.39;55.86
15314;BME280;7757;52.626;4.746;2023-05-02T03:45:39;102156.47;;;18.43;56.02
15314;BME280;7757;52.626;4.746;2023-05-02T03:48:30;102147.69;;;18.34;55.93
15314;BME280;7757;52.626;4.746;2023-05-02T03:51:15;102170.41;;;18.40;56.06
15314;BME280;7757;52.626;4.746;2023-05-02T03:54:01;102159.56;;;18.33;56.24
15314;BME280;7757;52.626;4.746;2023-05-02T03:56:46;102163.94;;;18.34;56.26
15314;BME280;7757;52.626;4.746;2023-05-02T03:59:32;102170.84;;;18.37;56.37
15314;BME280;7757;52.626;4.746;2023-05-02T04:02:22;102177.72;;;18.39;56.01
15314;BME280;7757;52.626;4.746;2023-05-02T04:05:08;102181.47;;;18.38;56.34
15314;BME280;7757;52.626;4.746;2023-05-02T04:08:04;102175.81;;;18.33;56.19
15314;BME280;7757;52.626;4.746;2023-05-02T04:10:50;102181.88;;;18.35;55.87
15314;BME280;7757;52.626;4.746;2023-05-02T04:13:41;102191.88;;;18.35;56.31
15314;BME280;7757;52.626;4.746;2023-05-02T04:16:26;102195.22;;;18.37;56.04
15314;BME280;7757;52.626;4.746;2023-05-02T04:19:17;102193.56;;;18.36;56.04
15314;BME280;7757;52.626;4.746;2023-05-02T04:22:02;102205.59;;;18.33;56.09
15314;BME280;7757;52.626;4.746;2023-05-02T04:24:48;102197.69;;;18.32;56.26
15314;BME280;7757;52.626;4.746;2023-05-02T04:27:33;102206.44;;;18.34;56.39
15314;BME280;7757;52.626;4.746;2023-05-02T04:30:21;102212.28;;;18.31;56.06
15314;BME280;7757;52.626;4.746;2023-05-02T04:33:12;102216.44;;;18.33;56.14
15314;BME280;7757;52.626;4.746;2023-05-02T04:35:58;102218.31;;;18.26;56.20
15314;BME280;7757;52.626;4.746;2023-05-02T04:38:44;102215.38;;;18.28;55.80
15314;BME280;7757;52.626;4.746;2023-05-02T04:41:32;102235.81;;;18.30;56.36
15314;BME280;7757;52.626;4.746;2023-05-02T04:44:17;102232.88;;;18.25;56.05
15314;BME280;7757;52.626;4.746;2023-05-02T04:47:03;102247.47;;;18.31;56.12
15314;BME280;7757;52.626;4.746;2023-05-02T04:49:50;102233.72;;;18.26;55.87
15314;BME280;7757;52.626;4.746;2023-05-02T04:52:37;102241.66;;;18.27;56.04
15314;BME280;7757;52.626;4.746;2023-05-02T04:55:25;102255.63;;;18.31;55.79
15314;BME280;7757;52.626;4.746;2023-05-02T04:58:11;102259.38;;;18.30;56.01
15314;BME280;7757;52.626;4.746;2023-05-02T05:00:59;102256.66;;;18.30;55.92
15314;BME280;7757;52.626;4.746;2023-05-02T05:03:44;102264.78;;;18.30;55.67
15314;BME280;7757;52.626;4.746;2023-05-02T05:06:30;102253.94;;;18.23;55.93
15314;BME280;7757;52.626;4.746;2023-05-02T05:09:20;102270.84;;;18.32;55.93
15314;BME280;7757;52.626;4.746;2023-05-02T05:12:14;102265.19;;;18.27;56.09
15314;BME280;7757;52.626;4.746;2023-05-02T05:15:00;102287.53;;;18.35;55.72
15314;BME280;7757;52.626;4.746;2023-05-02T05:17:45;102282.94;;;18.36;55.88
15314;BME280;7757;52.626;4.746;2023-05-02T05:20:33;102287.13;;;18.38;55.72
15314;BME280;7757;52.626;4.746;2023-05-02T05:23:18;102284.84;;;18.42;55.20
15314;BME280;7757;52.626;4.746;2023-05-02T05:26:20;102286.94;;;18.47;55.53
15314;BME280;7757;52.626;4.746;2023-05-02T05:29:09;102286.72;;;18.42;55.00
15314;BME280;7757;52.626;4.746;2023-05-02T05:31:54;102289.22;;;18.43;55.37
15314;BME280;7757;52.626;4.746;2023-05-02T05:34:42;102296.94;;;18.46;55.34
15314;BME280;7757;52.626;4.746;2023-05-02T05:37:28;102298.25;;;18.50;55.33
15314;BME280;7757;52.626;4.746;2023-05-02T05:40:20;102302.19;;;18.54;55.15
15314;BME280;7757;52.626;4.746;2023-05-02T05:43:07;102320.38;;;18.54;55.01
15314;BME280;7757;52.626;4.746;2023-05-02T05:45:53;102315.56;;;18.56;54.89
15314;BME280;7757;52.626;4.746;2023-05-02T05:48:41;102316.84;;;18.60;54.19
15314;BME280;7757;52.626;4.746;2023-05-02T05:51:27;102329.38;;;18.67;53.79
15314;BME280;7757;52.626;4.746;2023-05-02T05:54:12;102324.56;;;18.63;54.62
15314;BME280;7757;52.626;4.746;2023-05-02T05:57:02;102333.75;;;18.68;54.53
15314;BME280;7757;52.626;4.746;2023-05-02T05:59:56;102344.78;;;18.67;54.58
15314;BME280;7757;52.626;4.746;2023-05-02T06:02:42;102333.94;;;18.67;54.24
15314;BME280;7757;52.626;4.746;2023-05-02T06:05:27;102354.63;;;18.81;54.21
15314;BME280;7757;52.626;4.746;2023-05-02T06:08:13;102343.59;;;18.82;53.99
15314;BME280;7757;52.626;4.746;2023-05-02T06:10:58;102356.97;;;18.90;54.05
15314;BME280;7757;52.626;4.746;2023-05-02T06:13:43;102361.16;;;18.86;54.32
15314;BME280;7757;52.626;4.746;2023-05-02T06:16:30;102367.81;;;18.90;53.81
15314;BME280;7757;52.626;4.746;2023-05-02T06:19:15;102384.94;;;18.91;53.88
15314;BME280;7757;52.626;4.746;2023-05-02T06:22:03;102367.78;;;18.84;54.17
15314;BME280;7757;52.626;4.746;2023-05-02T06:24:48;102375.53;;;18.93;53.63
15314;BME280;7757;52.626;4.746;2023-05-02T06:27:34;102381.19;;;18.99;53.58
15314;BME280;7757;52.626;4.746;2023-05-02T06:30:19;102386.22;;;19.08;54.12
15314;BME280;7757;52.626;4.746;2023-05-02T06:33:06;102387.97;;;19.35;52.97
15314;BME280;7757;52.626;4.746;2023-05-02T06:35:52;102391.16;;;19.52;52.30
15314;BME280;7757;52.626;4.746;2023-05-02T06:38:37;102394.72;;;19.72;52.21
15314;BME280;7757;52.626;4.746;2023-05-02T06:41:23;102397.84;;;20.09;51.43
15314;BME280;7757;52.626;4.746;2023-05-02T06:44:08;102400.56;;;20.28;50.34
15314;BME280;7757;52.626;4.746;2023-05-02T06:46:54;102393.44;;;20.40;49.62
15314;BME280;7757;52.626;4.746;2023-05-02T06:49:43;102402.75;;;20.71;48.71
15314;BME280;7757;52.626;4.746;2023-05-02T06:52:29;102424.66;;;20.95;47.96
15314;BME280;7757;52.626;4.746;2023-05-02T06:55:14;102412.63;;;20.52;48.31
15314;BME280;7757;52.626;4.746;2023-05-02T06:58:00;102421.44;;;20.41;48.15
15314;BME280;7757;52.626;4.746;2023-05-02T07:00:45;102433.63;;;20.25;48.76
15314;BME280;7757;52.626;4.746;2023-05-02T07:03:31;102426.06;;;20.21;48.00
15314;BME280;7757;52.626;4.746;2023-05-02T07:06:18;102441.53;;;20.40;48.68
15314;BME280;7757;52.626;4.746;2023-05-02T07:09:09;102445.47;;;20.50;47.67
15314;BME280;7757;52.626;4.746;2023-05-02T07:11:54;102448.81;;;20.52;47.70
15314;BME280;7757;52.626;4.746;2023-05-02T07:14:39;102446.13;;;20.46;47.51
15314;BME280;7757;52.626;4.746;2023-05-02T07:17:25;102449.25;;;20.49;47.82
15314;BME280;7757;52.626;4.746;2023-05-02T07:20:11;102449.81;;;20.78;47.82
15314;BME280;7757;52.626;4.746;2023-05-02T07:22:57;102450.59;;;20.91;48.26
15314;BME280;7757;52.626;4.746;2023-05-02T07:25:42;102455.00;;;20.92;48.16
15314;BME280;7757;52.626;4.746;2023-05-02T07:28:28;102459.19;;;20.82;49.15
15314;BME280;7757;52.626;4.746;2023-05-02T07:31:13;102462.81;;;20.69;49.47
15314;BME280;7757;52.626;4.746;2023-05-02T07:33:59;102467.78;;;20.79;50.03
15314;BME280;7757;52.626;4.746;2023-05-02T07:36:46;102464.00;;;20.93;49.23
15314;BME280;7757;52.626;4.746;2023-05-02T07:39:36;102459.75;;;21.17;49.02
15314;BME280;7757;52.626;4.746;2023-05-02T07:42:27;102457.78;;;21.30;48.65
15314;BME280;7757;52.626;4.746;2023-05-02T07:45:13;102466.16;;;21.29;49.50
15314;BME280;7757;52.626;4.746;2023-05-02T07:47:58;102468.09;;;21.22;49.76
15314;BME280;7757;52.626;4.746;2023-05-02T07:50:50;102466.47;;;20.94;49.88
15314;BME280;7757;52.626;4.746;2023-05-02T07:53:38;102473.81;;;20.87;49.38
15314;BME280;7757;52.626;4.746;2023-05-02T07:56:26;102480.75;;;20.83;48.50
15314;BME280;7757;52.626;4.746;2023-05-02T07:59:11;102484.09;;;20.79;48.06
15314;BME280;7757;52.626;4.746;2023-05-02T08:01:57;102473.66;;;20.76;47.96
15314;BME280;7757;52.626;4.746;2023-05-02T08:04:42;102482.63;;;20.83;47.11
15314;BME280;7757;52.626;4.746;2023-05-02T08:07:31;102498.94;;;20.96;46.94
15314;BME280;7757;52.626;4.746;2023-05-02T08:10:16;102492.44;;;20.90;46.58
15314;BME280;7757;52.626;4.746;2023-05-02T08:13:03;102491.81;;;20.82;46.84
15314;BME280;7757;52.626;4.746;2023-05-02T08:15:49;102501.06;;;20.81;46.24
15314;BME280;7757;52.626;4.746;2023-05-02T08:18:34;102506.25;;;20.89;46.37
15314;BME280;7757;52.626;4.746;2023-05-02T08:21:20;102483.28;;;20.78;45.97
15314;BME280;7757;52.626;4.746;2023-05-02T08:24:07;102494.56;;;20.82;46.27
15314;BME280;7757;52.626;4.746;2023-05-02T08:26:53;102517.16;;;20.82;45.83
15314;BME280;7757;52.626;4.746;2023-05-02T08:29:40;102510.06;;;20.75;46.17
15314;BME280;7757;52.626;4.746;2023-05-02T08:32:25;102512.78;;;20.81;46.00
15314;BME280;7757;52.626;4.746;2023-05-02T08:35:12;102528.00;;;20.95;45.80
15314;BME280;7757;52.626;4.746;2023-05-02T08:37:58;102520.66;;;21.02;45.50
15314;BME280;7757;52.626;4.746;2023-05-02T08:40:47;102519.41;;;21.11;45.52
15314;BME280;7757;52.626;4.746;2023-05-02T08:43:36;102524.34;;;21.34;44.38
15314;BME280;7757;52.626;4.746;2023-05-02T08:46:24;102531.69;;;21.27;44.44
15314;BME280;7757;52.626;4.746;2023-05-02T08:49:12;102510.41;;;21.11;44.51
15314;BME280;7757;52.626;4.746;2023-05-02T08:52:00;102534.84;;;21.24;44.79
15314;BME280;7757;52.626;4.746;2023-05-02T08:54:46;102528.63;;;21.10;45.11
15314;BME280;7757;52.626;4.746;2023-05-02T08:57:32;102543.88;;;21.18;44.72
15314;BME280;7757;52.626;4.746;2023-05-02T09:00:18;102543.84;;;21.25;44.39
15314;BME280;7757;52.626;4.746;2023-05-02T09:03:15;102542.97;;;21.37;43.75
15314;BME280;7757;52.626;4.746;2023-05-02T09:06:06;102549.66;;;21.41;44.05
15314;BME280;7757;52.626;4.746;2023-05-02T09:08:52;102539.63;;;21.35;43.86
15314;BME280;7757;52.626;4.746;2023-05-02T09:11:40;102554.47;;;21.39;43.47
15314;BME280;7757;52.626;4.746;2023-05-02T09:14:26;102548.81;;;21.41;43.47
15314;BME280;7757;52.626;4.746;2023-05-02T09:17:11;102559.91;;;21.46;44.21
15314;BME280;7757;52.626;4.746;2023-05-02T09:20:01;102558.22;;;21.45;43.04
15314;BME280;7757;52.626;4.746;2023-05-02T09:22:48;102555.59;;;21.25;42.47
15314;BME280;7757;52.626;4.746;2023-05-02T09:25:39;102565.41;;;21.26;42.52
15314;BME280;7757;52.626;4.746;2023-05-02T09:28:37;102562.56;;;21.52;43.48
15314;BME280;7757;52.626;4.746;2023-05-02T09:31:24;102566.00;;;21.79;43.58
15314;BME280;7757;52.626;4.746;2023-05-02T09:34:11;102568.63;;;22.05;42.99
15314;BME280;7757;52.626;4.746;2023-05-02T09:36:58;102579.47;;;22.12;43.77
15314;BME280;7757;52.626;4.746;2023-05-02T09:40:04;102572.38;;;22.11;43.84
15314;BME280;7757;52.626;4.746;2023-05-02T09:42:50;102579.59;;;22.23;43.39
15314;BME280;7757;52.626;4.746;2023-05-02T09:45:35;102577.44;;;22.57;42.69
15314;BME280;7757;52.626;4.746;2023-05-02T09:48:21;102575.31;;;22.65;43.46
15314;BME280;7757;52.626;4.746;2023-05-02T09:51:16;102579.72;;;22.66;43.14
15314;BME280;7757;52.626;4.746;2023-05-02T09:54:02;102582.38;;;22.73;43.38
15314;BME280;7757;52.626;4.746;2023-05-02T09:56:52;102589.22;;;22.82;43.19
15314;BME280;7757;52.626;4.746;2023-05-02T09:59:52;102585.91;;;22.98;43.22
15314;BME280;7757;52.626;4.746;2023-05-02T10:02:38;102586.75;;;22.99;42.75
15314;BME280;7757;52.626;4.746;2023-05-02T10:05:24;102589.81;;;22.59;42.75
15314;BME280;7757;52.626;4.746;2023-05-02T10:08:10;102601.81;;;22.27;41.91
15314;BME280;7757;52.626;4.746;2023-05-02T10:11:01;102600.94;;;22.02;42.33
15314;BME280;7757;52.626;4.746;2023-05-02T10:13:48;102607.84;;;21.98;41.60
15314;BME280;7757;52.626;4.746;2023-05-02T10:16:35;102608.69;;;21.98;42.32
15314;BME280;7757;52.626;4.746;2023-05-02T10:19:23;102595.34;;;21.84;41.34
15314;BME280;7757;52.626;4.746;2023-05-02T10:22:13;102609.84;;;21.71;42.06
15314;BME280;7757;52.626;4.746;2023-05-02T10:25:03;102608.22;;;21.63;41.29
15314;BME280;7757;52.626;4.746;2023-05-02T10:27:50;102611.72;;;21.70;41.93
15314;BME280;7757;52.626;4.746;2023-05-02T10:30:39;102605.94;;;22.05;42.80
15314;BME280;7757;52.626;4.746;2023-05-02T10:33:25;102600.28;;;22.00;42.83
15314;BME280;7757;52.626;4.746;2023-05-02T10:36:13;102602.44;;;21.40;41.93
15314;BME280;7757;52.626;4.746;2023-05-02T10:38:59;102606.19;;;21.39;42.06
15314;BME280;7757;52.626;4.746;2023-05-02T10:41:45;102611.66;;;21.39;42.49
15314;BME280;7757;52.626;4.746;2023-05-02T10:44:35;102603.91;;;21.36;41.78
15314;BME280;7757;52.626;4.746;2023-05-02T10:47:22;102619.63;;;21.34;42.67
15314;BME280;7757;52.626;4.746;2023-05-02T10:50:15;102603.66;;;21.44;41.72
15314;BME280;7757;52.626;4.746;2023-05-02T10:53:21;102616.47;;;21.37;41.84
15314;BME280;7757;52.626;4.746;2023-05-02T10:56:17;102617.34;;;21.18;41.84
15314;BME280;7757;52.626;4.746;2023-05-02T10:59:28;102615.91;;;21.09;42.06
15314;BME280;7757;52.626;4.746;2023-05-02T11:02:49;102621.75;;;21.19;41.76
15314;BME280;7757;52.626;4.746;2023-05-02T11:06:04;102618.19;;;21.19;42.27
15314;BME280;7757;52.626;4.746;2023-05-02T11:08:50;102620.91;;;21.25;42.78
15314;BME280;7757;52.626;4.746;2023-05-02T11:11:40;102614.38;;;21.26;41.80
15314;BME280;7757;52.626;4.746;2023-05-02T11:14:45;102622.31;;;21.41;42.71
15314;BME280;7757;52.626;4.746;2023-05-02T11:17:59;102617.28;;;21.44;42.27
15314;BME280;7757;52.626;4.746;2023-05-02T11:20:48;102629.69;;;21.34;43.05
15314;BME280;7757;52.626;4.746;2023-05-02T11:23:34;102629.50;;;21.22;42.59
15314;BME280;7757;52.626;4.746;2023-05-02T11:26:21;102618.00;;;21.13;42.39
15314;BME280;7757;52.626;4.746;2023-05-02T11:29:09;102636.41;;;21.25;42.25
15314;BME280;7757;52.626;4.746;2023-05-02T11:31:54;102633.66;;;21.31;42.35
15314;BME280;7757;52.626;4.746;2023-05-02T11:34:42;102639.91;;;21.45;42.41
15314;BME280;7757;52.626;4.746;2023-05-02T11:37:28;102633.00;;;21.42;41.64
15314;BME280;7757;52.626;4.746;2023-05-02T11:40:14;102641.19;;;21.29;41.83
15314;BME280;7757;52.626;4.746;2023-05-02T11:43:11;102645.28;;;21.64;41.59
15314;BME280;7757;52.626;4.746;2023-05-02T11:45:57;102646.09;;;21.72;41.15
15314;BME280;7757;52.626;4.746;2023-05-02T11:48:43;102653.00;;;21.67;41.46
15314;BME280;7757;52.626;4.746;2023-05-02T11:51:30;102656.16;;;21.71;41.61
15314;BME280;7757;52.626;4.746;2023-05-02T11:54:18;102654.03;;;21.73;41.96
15314;BME280;7757;52.626;4.746;2023-05-02T11:57:04;102675.44;;;21.69;42.88
15314;BME280;7757;52.626;4.746;2023-05-02T11:59:50;102669.34;;;21.67;42.28
15314;BME280;7757;52.626;4.746;2023-05-02T12:02:36;102666.84;;;21.73;42.29
15314;BME280;7757;52.626;4.746;2023-05-02T12:05:27;102672.47;;;21.84;42.56
15314;BME280;7757;52.626;4.746;2023-05-02T12:08:18;102666.16;;;21.84;41.99
15314;BME280;7757;52.626;4.746;2023-05-02T12:11:04;102675.78;;;21.86;41.78
15314;BME280;7757;52.626;4.746;2023-05-02T12:13:49;102679.59;;;21.79;42.00
15314;BME280;7757;52.626;4.746;2023-05-02T12:16:35;102679.97;;;21.82;41.19
15314;BME280;7757;52.626;4.746;2023-05-02T12:19:20;102678.53;;;21.80;42.04
15314;BME280;7757;52.626;4.746;2023-05-02T12:22:06;102681.91;;;21.82;41.63
15314;BME280;7757;52.626;4.746;2023-05-02T12:24:55;102682.53;;;21.90;41.54
15314;BME280;7757;52.626;4.746;2023-05-02T12:27:41;102672.34;;;21.46;40.84
15314;BME280;7757;52.626;4.746;2023-05-02T12:30:26;102669.84;;;21.32;41.36
15314;BME280;7757;52.626;4.746;2023-05-02T12:33:12;102684.09;;;21.40;40.70
15314;BME280;7757;52.626;4.746;2023-05-02T12:36:05;102684.97;;;21.08;41.00
15314;BME280;7757;52.626;4.746;2023-05-02T12:38:51;102699.41;;;21.15;40.07
15314;BME280;7757;52.626;4.746;2023-05-02T12:41:38;102686.66;;;21.09;40.80
15314;BME280;7757;52.626;4.746;2023-05-02T12:44:36;102685.81;;;21.22;40.46
15314;BME280;7757;52.626;4.746;2023-05-02T12:47:21;102693.53;;;21.31;40.27
15314;BME280;7757;52.626;4.746;2023-05-02T12:50:08;102695.84;;;21.34;40.56
15314;BME280;7757;52.626;4.746;2023-05-02T12:52:53;102693.53;;;21.31;40.46
15314;BME280;7757;52.626;4.746;2023-05-02T12:55:42;102687.88;;;21.33;40.44
15314;BME280;7757;52.626;4.746;2023-05-02T12:58:39;102695.00;;;21.40;41.24
15314;BME280;7757;52.626;4.746;2023-05-02T13:01:24;102706.09;;;21.32;41.05
15314;BME280;7757;52.626;4.746;2023-05-02T13:04:10;102703.16;;;21.40;41.33
15314;BME280;7757;52.626;4.746;2023-05-02T13:06:58;102707.78;;;21.40;40.75
15314;BME280;7757;52.626;4.746;2023-05-02T13:09:46;102712.56;;;21.44;40.57
15314;BME280;7757;52.626;4.746;2023-05-02T13:12:31;102703.78;;;21.42;40.52
15314;BME280;7757;52.626;4.746;2023-05-02T13:15:21;102707.34;;;21.43;41.59
15314;BME280;7757;52.626;4.746;2023-05-02T13:18:07;102719.06;;;21.24;40.65
15314;BME280;7757;52.626;4.746;2023-05-02T13:20:52;102708.81;;;21.32;41.23
15314;BME280;7757;52.626;4.746;2023-05-02T13:23:38;102708.41;;;21.22;41.07
15314;BME280;7757;52.626;4.746;2023-05-02T13:26:24;102708.41;;;21.09;41.31
15314;BME280;7757;52.626;4.746;2023-05-02T13:29:09;102705.44;;;20.97;42.41
15314;BME280;7757;52.626;4.746;2023-05-02T13:31:56;102703.56;;;20.91;41.94
15314;BME280;7757;52.626;4.746;2023-05-02T13:34:42;102708.38;;;21.02;41.11
15314;BME280;7757;52.626;4.746;2023-05-02T13:37:27;102713.00;;;21.08;40.45
15314;BME280;7757;52.626;4.746;2023-05-02T13:40:12;102720.31;;;21.01;38.62
15314;BME280;7757;52.626;4.746;2023-05-02T13:43:02;102716.97;;;20.93;38.62
15314;BME280;7757;52.626;4.746;2023-05-02T13:45:47;102712.56;;;20.85;40.65
15314;BME280;7757;52.626;4.746;2023-05-02T13:48:37;102717.81;;;20.87;40.78
15314;BME280;7757;52.626;4.746;2023-05-02T13:51:22;102720.28;;;20.82;39.91
15314;BME280;7757;52.626;4.746;2023-05-02T13:54:08;102724.50;;;20.97;40.57
15314;BME280;7757;52.626;4.746;2023-05-02T13:56:54;102738.13;;;21.30;40.32
15314;BME280;7757;52.626;4.746;2023-05-02T13:59:40;102732.69;;;21.30;39.29
15314;BME280;7757;52.626;4.746;2023-05-02T14:02:25;102730.81;;;21.31;39.32
15314;BME280;7757;52.626;4.746;2023-05-02T14:05:13;102734.38;;;21.31;37.80
15314;BME280;7757;52.626;4.746;2023-05-02T14:07:58;102741.06;;;21.42;39.86
15314;BME280;7757;52.626;4.746;2023-05-02T14:10:43;102747.53;;;21.41;39.97
15314;BME280;7757;52.626;4.746;2023-05-02T14:13:29;102749.44;;;21.40;39.70
15314;BME280;7757;52.626;4.746;2023-05-02T14:16:14;102742.34;;;21.20;38.06
15314;BME280;7757;52.626;4.746;2023-05-02T14:19:00;102747.56;;;21.34;38.31
15314;BME280;7757;52.626;4.746;2023-05-02T14:21:46;102745.22;;;21.38;40.50
15314;BME280;7757;52.626;4.746;2023-05-02T14:24:32;102742.53;;;21.25;38.77
15314;BME280;7757;52.626;4.746;2023-05-02T14:27:17;102744.84;;;21.28;39.53
15314;BME280;7757;52.626;4.746;2023-05-02T14:30:03;102749.88;;;21.37;40.35
15314;BME280;7757;52.626;4.746;2023-05-02T14:32:49;102748.38;;;21.41;40.29
15314;BME280;7757;52.626;4.746;2023-05-02T14:35:34;102743.78;;;21.29;40.17
15314;BME280;7757;52.626;4.746;2023-05-02T14:38:21;102745.22;;;21.38;39.42
15314;BME280;7757;52.626;4.746;2023-05-02T14:41:07;102738.97;;;21.37;40.64
15314;BME280;7757;52.626;4.746;2023-05-02T14:43:52;102743.75;;;21.02;40.49
15314;BME280;7757;52.626;4.746;2023-05-02T14:46:41;102738.31;;;20.96;39.77
15314;BME280;7757;52.626;4.746;2023-05-02T14:49:26;102729.84;;;20.38;39.51
15314;BME280;7757;52.626;4.746;2023-05-02T14:52:11;102741.22;;;20.75;40.71